Heath, Montana
Current Conditions -  °F | °C
As of 6:54 AM on Tuesday 27 Jan 2015 (Local Time) from KLWT Reporting Station
Clear Clear  
Wind Chill: 40°   Ceiling: Unl
Heat Index: 46°   Visibility: 10mi
Dew Point: 27°   Wind: 13mph
Humidity: 47%   Direction: 220°SW
Pressure: 29.93"   Gusts: NA
Location:  46.9245°N, 109.389°W
Report Text: KLWT 271354Z AUTO 22011KT 10SM CLR 08/M03 A2993 RMK AO2 SLP130 T00781028
Loading
Personal Weather Stations






























Interactive Weather Map New forecast layout! Learn more

10-Day Weather Forecast

Advertisements
Track Severe Weather on mobile